sensor_id;sensor_type;location;lat;lon;timestamp;P1;durP1;ratioP1;P2;durP2;ratioP2
54502;SDS011;40411;50.090;21.954;2023-07-30T00:00:18;5.68;;;3.15;;
54502;SDS011;40411;50.090;21.954;2023-07-30T00:03:04;6.15;;;3.58;;
54502;SDS011;40411;50.090;21.954;2023-07-30T00:05:31;6.20;;;3.47;;
54502;SDS011;40411;50.090;21.954;2023-07-30T00:07:56;7.80;;;3.65;;
54502;SDS011;40411;50.090;21.954;2023-07-30T00:10:22;7.35;;;3.33;;
54502;SDS011;40411;50.090;21.954;2023-07-30T00:12:48;7.63;;;3.22;;
54502;SDS011;40411;50.090;21.954;2023-07-30T00:15:14;9.02;;;3.75;;
54502;SDS011;40411;50.090;21.954;2023-07-30T00:17:40;5.82;;;2.88;;
54502;SDS011;40411;50.090;21.954;2023-07-30T00:20:07;6.28;;;2.90;;
54502;SDS011;40411;50.090;21.954;2023-07-30T00:22:34;7.13;;;2.90;;
54502;SDS011;40411;50.090;21.954;2023-07-30T00:25:00;5.97;;;3.10;;
54502;SDS011;40411;50.090;21.954;2023-07-30T00:27:25;7.72;;;3.33;;
54502;SDS011;40411;50.090;21.954;2023-07-30T00:29:51;6.05;;;3.45;;
54502;SDS011;40411;50.090;21.954;2023-07-30T00:32:17;5.45;;;2.75;;
54502;SDS011;40411;50.090;21.954;2023-07-30T00:34:43;8.90;;;3.45;;
54502;SDS011;40411;50.090;21.954;2023-07-30T00:37:11;5.70;;;2.78;;
54502;SDS011;40411;50.090;21.954;2023-07-30T00:39:36;6.00;;;3.30;;
54502;SDS011;40411;50.090;21.954;2023-07-30T00:42:02;6.15;;;2.88;;
54502;SDS011;40411;50.090;21.954;2023-07-30T00:44:28;5.75;;;3.00;;
54502;SDS011;40411;50.090;21.954;2023-07-30T00:46:55;6.10;;;2.83;;
54502;SDS011;40411;50.090;21.954;2023-07-30T00:49:21;5.80;;;2.85;;
54502;SDS011;40411;50.090;21.954;2023-07-30T00:51:47;7.32;;;3.13;;
54502;SDS011;40411;50.090;21.954;2023-07-30T00:54:13;8.35;;;2.90;;
54502;SDS011;40411;50.090;21.954;2023-07-30T00:56:39;6.70;;;3.17;;
54502;SDS011;40411;50.090;21.954;2023-07-30T00:59:11;5.45;;;3.25;;
54502;SDS011;40411;50.090;21.954;2023-07-30T01:01:37;5.18;;;2.78;;
54502;SDS011;40411;50.090;21.954;2023-07-30T01:04:07;6.72;;;2.58;;
54502;SDS011;40411;50.090;21.954;2023-07-30T01:06:33;6.72;;;3.00;;
54502;SDS011;40411;50.090;21.954;2023-07-30T01:08:59;6.03;;;3.15;;
54502;SDS011;40411;50.090;21.954;2023-07-30T01:11:25;9.63;;;3.05;;
54502;SDS011;40411;50.090;21.954;2023-07-30T01:13:52;6.32;;;3.30;;
54502;SDS011;40411;50.090;21.954;2023-07-30T01:16:19;6.55;;;3.03;;
54502;SDS011;40411;50.090;21.954;2023-07-30T01:18:45;5.78;;;2.83;;
54502;SDS011;40411;50.090;21.954;2023-07-30T01:21:12;6.22;;;3.10;;
54502;SDS011;40411;50.090;21.954;2023-07-30T01:23:38;9.23;;;3.30;;
54502;SDS011;40411;50.090;21.954;2023-07-30T01:26:07;6.03;;;3.30;;
54502;SDS011;40411;50.090;21.954;2023-07-30T01:28:36;7.28;;;3.25;;
54502;SDS011;40411;50.090;21.954;2023-07-30T01:31:05;6.70;;;2.92;;
54502;SDS011;40411;50.090;21.954;2023-07-30T01:33:33;6.90;;;3.25;;
54502;SDS011;40411;50.090;21.954;2023-07-30T01:35:59;6.30;;;3.20;;
54502;SDS011;40411;50.090;21.954;2023-07-30T01:38:27;8.43;;;3.00;;
54502;SDS011;40411;50.090;21.954;2023-07-30T01:40:53;8.40;;;3.50;;
54502;SDS011;40411;50.090;21.954;2023-07-30T01:43:19;6.25;;;3.60;;
54502;SDS011;40411;50.090;21.954;2023-07-30T01:45:45;6.75;;;3.25;;
54502;SDS011;40411;50.090;21.954;2023-07-30T01:48:11;6.75;;;3.67;;
54502;SDS011;40411;50.090;21.954;2023-07-30T01:50:37;6.18;;;3.30;;
54502;SDS011;40411;50.090;21.954;2023-07-30T01:53:02;6.70;;;3.45;;
54502;SDS011;40411;50.090;21.954;2023-07-30T01:55:28;6.75;;;3.35;;
54502;SDS011;40411;50.090;21.954;2023-07-30T01:57:54;8.32;;;3.33;;
54502;SDS011;40411;50.090;21.954;2023-07-30T02:00:20;7.32;;;3.70;;
54502;SDS011;40411;50.090;21.954;2023-07-30T02:02:45;6.22;;;3.33;;
54502;SDS011;40411;50.090;21.954;2023-07-30T02:05:11;9.32;;;4.00;;
54502;SDS011;40411;50.090;21.954;2023-07-30T02:07:41;10.77;;;3.33;;
54502;SDS011;40411;50.090;21.954;2023-07-30T02:10:07;7.10;;;3.25;;
54502;SDS011;40411;50.090;21.954;2023-07-30T02:12:33;8.70;;;3.63;;
54502;SDS011;40411;50.090;21.954;2023-07-30T02:14:59;5.65;;;2.95;;
54502;SDS011;40411;50.090;21.954;2023-07-30T02:17:24;6.13;;;3.58;;
54502;SDS011;40411;50.090;21.954;2023-07-30T02:19:50;6.35;;;3.30;;
54502;SDS011;40411;50.090;21.954;2023-07-30T02:22:16;5.95;;;3.05;;
54502;SDS011;40411;50.090;21.954;2023-07-30T02:24:42;8.90;;;3.50;;
54502;SDS011;40411;50.090;21.954;2023-07-30T02:27:08;10.13;;;3.72;;
54502;SDS011;40411;50.090;21.954;2023-07-30T02:29:34;7.20;;;3.63;;
54502;SDS011;40411;50.090;21.954;2023-07-30T02:31:59;7.80;;;3.42;;
54502;SDS011;40411;50.090;21.954;2023-07-30T02:34:25;9.88;;;4.07;;
54502;SDS011;40411;50.090;21.954;2023-07-30T02:36:51;6.85;;;3.60;;
54502;SDS011;40411;50.090;21.954;2023-07-30T02:39:17;6.32;;;3.40;;
54502;SDS011;40411;50.090;21.954;2023-07-30T02:41:43;6.63;;;3.60;;
54502;SDS011;40411;50.090;21.954;2023-07-30T02:44:09;5.28;;;3.38;;
54502;SDS011;40411;50.090;21.954;2023-07-30T02:46:34;9.63;;;4.45;;
54502;SDS011;40411;50.090;21.954;2023-07-30T02:49:00;7.30;;;3.97;;
54502;SDS011;40411;50.090;21.954;2023-07-30T02:51:26;6.82;;;3.85;;
54502;SDS011;40411;50.090;21.954;2023-07-30T02:53:52;7.00;;;3.78;;
54502;SDS011;40411;50.090;21.954;2023-07-30T02:56:23;10.57;;;4.10;;
54502;SDS011;40411;50.090;21.954;2023-07-30T02:58:49;6.97;;;3.90;;
54502;SDS011;40411;50.090;21.954;2023-07-30T03:01:14;9.85;;;4.07;;
54502;SDS011;40411;50.090;21.954;2023-07-30T03:03:41;7.43;;;4.53;;
54502;SDS011;40411;50.090;21.954;2023-07-30T03:06:06;8.98;;;4.70;;
54502;SDS011;40411;50.090;21.954;2023-07-30T03:08:32;7.28;;;4.13;;
54502;SDS011;40411;50.090;21.954;2023-07-30T03:10:58;7.20;;;4.05;;
54502;SDS011;40411;50.090;21.954;2023-07-30T03:13:25;6.97;;;4.32;;
54502;SDS011;40411;50.090;21.954;2023-07-30T03:15:51;8.48;;;4.15;;
54502;SDS011;40411;50.090;21.954;2023-07-30T03:18:18;6.95;;;4.00;;
54502;SDS011;40411;50.090;21.954;2023-07-30T03:20:43;9.00;;;4.68;;
54502;SDS011;40411;50.090;21.954;2023-07-30T03:23:09;7.22;;;4.10;;
54502;SDS011;40411;50.090;21.954;2023-07-30T03:25:35;6.00;;;3.72;;
54502;SDS011;40411;50.090;21.954;2023-07-30T03:28:01;7.25;;;4.03;;
54502;SDS011;40411;50.090;21.954;2023-07-30T03:30:26;10.95;;;4.07;;
54502;SDS011;40411;50.090;21.954;2023-07-30T03:32:52;6.03;;;3.63;;
54502;SDS011;40411;50.090;21.954;2023-07-30T03:35:18;6.47;;;3.67;;
54502;SDS011;40411;50.090;21.954;2023-07-30T03:37:44;7.15;;;3.90;;
54502;SDS011;40411;50.090;21.954;2023-07-30T03:40:10;6.15;;;3.72;;
54502;SDS011;40411;50.090;21.954;2023-07-30T03:42:36;6.43;;;3.75;;
54502;SDS011;40411;50.090;21.954;2023-07-30T03:45:03;6.70;;;4.13;;
54502;SDS011;40411;50.090;21.954;2023-07-30T03:47:29;6.88;;;4.13;;
54502;SDS011;40411;50.090;21.954;2023-07-30T03:49:55;6.72;;;4.10;;
54502;SDS011;40411;50.090;21.954;2023-07-30T03:52:21;5.70;;;3.72;;
54502;SDS011;40411;50.090;21.954;2023-07-30T03:54:46;5.97;;;3.55;;
54502;SDS011;40411;50.090;21.954;2023-07-30T03:57:12;6.75;;;3.45;;
54502;SDS011;40411;50.090;21.954;2023-07-30T03:59:38;7.40;;;3.97;;
54502;SDS011;40411;50.090;21.954;2023-07-30T04:02:04;5.50;;;3.00;;
54502;SDS011;40411;50.090;21.954;2023-07-30T04:04:30;5.55;;;3.13;;
54502;SDS011;40411;50.090;21.954;2023-07-30T04:06:59;6.20;;;3.10;;
54502;SDS011;40411;50.090;21.954;2023-07-30T04:09:24;11.05;;;2.78;;
54502;SDS011;40411;50.090;21.954;2023-07-30T04:11:52;6.70;;;3.00;;
54502;SDS011;40411;50.090;21.954;2023-07-30T04:14:18;8.27;;;2.30;;
54502;SDS011;40411;50.090;21.954;2023-07-30T04:16:44;5.72;;;2.45;;
54502;SDS011;40411;50.090;21.954;2023-07-30T04:19:12;5.30;;;2.05;;
54502;SDS011;40411;50.090;21.954;2023-07-30T04:21:38;5.93;;;2.55;;
54502;SDS011;40411;50.090;21.954;2023-07-30T04:24:04;5.32;;;2.20;;
54502;SDS011;40411;50.090;21.954;2023-07-30T04:26:30;4.75;;;2.33;;
54502;SDS011;40411;50.090;21.954;2023-07-30T04:28:55;5.40;;;2.40;;
54502;SDS011;40411;50.090;21.954;2023-07-30T04:31:22;5.18;;;2.28;;
54502;SDS011;40411;50.090;21.954;2023-07-30T04:33:47;4.80;;;2.15;;
54502;SDS011;40411;50.090;21.954;2023-07-30T04:36:13;4.72;;;2.25;;
54502;SDS011;40411;50.090;21.954;2023-07-30T04:38:39;6.72;;;2.20;;
54502;SDS011;40411;50.090;21.954;2023-07-30T04:41:05;4.78;;;2.13;;
54502;SDS011;40411;50.090;21.954;2023-07-30T04:43:37;5.78;;;2.10;;
54502;SDS011;40411;50.090;21.954;2023-07-30T04:46:03;5.28;;;2.20;;
54502;SDS011;40411;50.090;21.954;2023-07-30T04:48:30;5.75;;;1.95;;
54502;SDS011;40411;50.090;21.954;2023-07-30T04:50:56;3.85;;;2.03;;
54502;SDS011;40411;50.090;21.954;2023-07-30T04:53:22;5.05;;;2.08;;
54502;SDS011;40411;50.090;21.954;2023-07-30T04:55:52;3.95;;;2.08;;
54502;SDS011;40411;50.090;21.954;2023-07-30T04:58:20;3.75;;;1.85;;
54502;SDS011;40411;50.090;21.954;2023-07-30T05:00:46;4.45;;;2.00;;
54502;SDS011;40411;50.090;21.954;2023-07-30T05:03:12;5.15;;;1.90;;
54502;SDS011;40411;50.090;21.954;2023-07-30T05:05:38;5.07;;;1.77;;
54502;SDS011;40411;50.090;21.954;2023-07-30T05:08:04;7.65;;;1.85;;
54502;SDS011;40411;50.090;21.954;2023-07-30T05:10:31;10.48;;;2.03;;
54502;SDS011;40411;50.090;21.954;2023-07-30T05:12:57;4.47;;;1.90;;
54502;SDS011;40411;50.090;21.954;2023-07-30T05:15:23;7.03;;;2.00;;
54502;SDS011;40411;50.090;21.954;2023-07-30T05:17:48;4.47;;;1.67;;
54502;SDS011;40411;50.090;21.954;2023-07-30T05:20:15;4.45;;;1.85;;
54502;SDS011;40411;50.090;21.954;2023-07-30T05:22:52;4.90;;;1.98;;
54502;SDS011;40411;50.090;21.954;2023-07-30T05:25:19;5.88;;;1.75;;
54502;SDS011;40411;50.090;21.954;2023-07-30T05:27:45;4.22;;;1.83;;
54502;SDS011;40411;50.090;21.954;2023-07-30T05:30:11;8.38;;;3.83;;
54502;SDS011;40411;50.090;21.954;2023-07-30T05:32:38;4.45;;;1.92;;
54502;SDS011;40411;50.090;21.954;2023-07-30T05:35:04;5.32;;;2.00;;
54502;SDS011;40411;50.090;21.954;2023-07-30T05:37:34;5.15;;;2.15;;
54502;SDS011;40411;50.090;21.954;2023-07-30T05:40:00;3.72;;;1.73;;
54502;SDS011;40411;50.090;21.954;2023-07-30T05:42:26;5.13;;;1.90;;
54502;SDS011;40411;50.090;21.954;2023-07-30T05:44:52;7.65;;;1.65;;
54502;SDS011;40411;50.090;21.954;2023-07-30T05:47:18;5.95;;;2.08;;
54502;SDS011;40411;50.090;21.954;2023-07-30T05:49:45;8.10;;;2.05;;
54502;SDS011;40411;50.090;21.954;2023-07-30T05:52:11;3.95;;;1.70;;
54502;SDS011;40411;50.090;21.954;2023-07-30T05:54:36;6.05;;;2.10;;
54502;SDS011;40411;50.090;21.954;2023-07-30T05:57:02;7.25;;;1.90;;
54502;SDS011;40411;50.090;21.954;2023-07-30T05:59:29;3.95;;;1.67;;
54502;SDS011;40411;50.090;21.954;2023-07-30T06:01:55;5.57;;;1.80;;
54502;SDS011;40411;50.090;21.954;2023-07-30T06:04:22;4.57;;;1.80;;
54502;SDS011;40411;50.090;21.954;2023-07-30T06:06:48;4.90;;;2.00;;
54502;SDS011;40411;50.090;21.954;2023-07-30T06:12:33;4.40;;;1.80;;
54502;SDS011;40411;50.090;21.954;2023-07-30T06:14:59;5.28;;;2.00;;
54502;SDS011;40411;50.090;21.954;2023-07-30T06:20:47;6.78;;;1.73;;
54502;SDS011;40411;50.090;21.954;2023-07-30T06:23:14;5.55;;;1.90;;
54502;SDS011;40411;50.090;21.954;2023-07-30T06:25:40;4.47;;;1.77;;
54502;SDS011;40411;50.090;21.954;2023-07-30T06:28:07;4.82;;;1.85;;
54502;SDS011;40411;50.090;21.954;2023-07-30T06:30:33;6.65;;;1.88;;
54502;SDS011;40411;50.090;21.954;2023-07-30T06:32:59;6.60;;;1.70;;
54502;SDS011;40411;50.090;21.954;2023-07-30T06:35:25;3.95;;;1.58;;
54502;SDS011;40411;50.090;21.954;2023-07-30T06:37:51;6.32;;;2.95;;
54502;SDS011;40411;50.090;21.954;2023-07-30T06:40:17;5.68;;;1.88;;
54502;SDS011;40411;50.090;21.954;2023-07-30T06:42:43;4.68;;;2.00;;
54502;SDS011;40411;50.090;21.954;2023-07-30T06:45:09;12.10;;;2.05;;
54502;SDS011;40411;50.090;21.954;2023-07-30T06:47:35;4.78;;;1.70;;
54502;SDS011;40411;50.090;21.954;2023-07-30T06:50:01;4.75;;;1.90;;
54502;SDS011;40411;50.090;21.954;2023-07-30T06:52:28;3.15;;;1.40;;
54502;SDS011;40411;50.090;21.954;2023-07-30T06:54:54;4.85;;;1.98;;
54502;SDS011;40411;50.090;21.954;2023-07-30T06:57:20;4.05;;;1.70;;
54502;SDS011;40411;50.090;21.954;2023-07-30T06:59:46;5.90;;;1.55;;
54502;SDS011;40411;50.090;21.954;2023-07-30T07:02:12;10.43;;;1.80;;
54502;SDS011;40411;50.090;21.954;2023-07-30T07:04:38;5.68;;;2.15;;
54502;SDS011;40411;50.090;21.954;2023-07-30T07:07:04;3.83;;;1.65;;
54502;SDS011;40411;50.090;21.954;2023-07-30T07:09:30;6.88;;;1.90;;
54502;SDS011;40411;50.090;21.954;2023-07-30T07:11:57;4.43;;;1.50;;
54502;SDS011;40411;50.090;21.954;2023-07-30T07:14:25;4.25;;;1.70;;
54502;SDS011;40411;50.090;21.954;2023-07-30T07:16:52;4.65;;;1.75;;
54502;SDS011;40411;50.090;21.954;2023-07-30T07:19:20;7.18;;;1.80;;
54502;SDS011;40411;50.090;21.954;2023-07-30T07:21:46;4.72;;;1.60;;
54502;SDS011;40411;50.090;21.954;2023-07-30T07:24:13;6.63;;;1.52;;
54502;SDS011;40411;50.090;21.954;2023-07-30T07:26:39;3.70;;;1.50;;
54502;SDS011;40411;50.090;21.954;2023-07-30T07:29:05;4.13;;;1.58;;
54502;SDS011;40411;50.090;21.954;2023-07-30T07:31:31;6.97;;;1.50;;
54502;SDS011;40411;50.090;21.954;2023-07-30T07:33:57;3.88;;;1.60;;
54502;SDS011;40411;50.090;21.954;2023-07-30T07:36:23;7.75;;;1.80;;
54502;SDS011;40411;50.090;21.954;2023-07-30T07:38:49;5.28;;;1.75;;
54502;SDS011;40411;50.090;21.954;2023-07-30T07:41:16;3.50;;;1.48;;
54502;SDS011;40411;50.090;21.954;2023-07-30T07:43:42;3.50;;;1.35;;
54502;SDS011;40411;50.090;21.954;2023-07-30T07:46:09;3.85;;;1.55;;
54502;SDS011;40411;50.090;21.954;2023-07-30T07:48:42;4.22;;;1.60;;
54502;SDS011;40411;50.090;21.954;2023-07-30T07:51:09;3.17;;;1.40;;
54502;SDS011;40411;50.090;21.954;2023-07-30T07:53:36;3.55;;;1.10;;
54502;SDS011;40411;50.090;21.954;2023-07-30T07:56:03;5.00;;;1.45;;
54502;SDS011;40411;50.090;21.954;2023-07-30T07:58:30;3.20;;;1.33;;
54502;SDS011;40411;50.090;21.954;2023-07-30T08:01:01;3.80;;;1.60;;
54502;SDS011;40411;50.090;21.954;2023-07-30T08:03:28;4.10;;;1.55;;
54502;SDS011;40411;50.090;21.954;2023-07-30T08:05:54;4.32;;;1.40;;
54502;SDS011;40411;50.090;21.954;2023-07-30T08:08:20;4.03;;;1.17;;
54502;SDS011;40411;50.090;21.954;2023-07-30T08:10:47;3.63;;;1.35;;
54502;SDS011;40411;50.090;21.954;2023-07-30T08:13:13;3.67;;;1.45;;
54502;SDS011;40411;50.090;21.954;2023-07-30T08:15:45;5.10;;;1.27;;
54502;SDS011;40411;50.090;21.954;2023-07-30T08:18:12;4.20;;;1.40;;
54502;SDS011;40411;50.090;21.954;2023-07-30T08:20:42;7.50;;;1.45;;
54502;SDS011;40411;50.090;21.954;2023-07-30T08:23:17;3.88;;;1.50;;
54502;SDS011;40411;50.090;21.954;2023-07-30T08:25:43;3.67;;;1.05;;
54502;SDS011;40411;50.090;21.954;2023-07-30T08:28:09;3.80;;;1.30;;
54502;SDS011;40411;50.090;21.954;2023-07-30T08:30:36;4.35;;;1.33;;
54502;SDS011;40411;50.090;21.954;2023-07-30T08:33:02;3.38;;;1.33;;
54502;SDS011;40411;50.090;21.954;2023-07-30T08:35:29;7.93;;;1.52;;
54502;SDS011;40411;50.090;21.954;2023-07-30T08:37:55;4.18;;;1.08;;
54502;SDS011;40411;50.090;21.954;2023-07-30T08:40:21;6.75;;;1.20;;
54502;SDS011;40411;50.090;21.954;2023-07-30T08:42:50;3.92;;;1.20;;
54502;SDS011;40411;50.090;21.954;2023-07-30T08:45:18;3.50;;;1.10;;
54502;SDS011;40411;50.090;21.954;2023-07-30T08:47:45;5.05;;;1.27;;
54502;SDS011;40411;50.090;21.954;2023-07-30T08:50:13;3.80;;;1.08;;
54502;SDS011;40411;50.090;21.954;2023-07-30T08:52:39;2.38;;;1.00;;
54502;SDS011;40411;50.090;21.954;2023-07-30T08:55:07;3.85;;;1.10;;
54502;SDS011;40411;50.090;21.954;2023-07-30T08:57:33;2.58;;;1.00;;
54502;SDS011;40411;50.090;21.954;2023-07-30T09:02:52;3.22;;;1.33;;
54502;SDS011;40411;50.090;21.954;2023-07-30T09:05:25;3.38;;;1.15;;
54502;SDS011;40411;50.090;21.954;2023-07-30T09:07:53;2.90;;;1.30;;
54502;SDS011;40411;50.090;21.954;2023-07-30T09:10:20;2.47;;;1.00;;
54502;SDS011;40411;50.090;21.954;2023-07-30T09:12:46;2.60;;;1.00;;
54502;SDS011;40411;50.090;21.954;2023-07-30T09:15:19;2.65;;;1.10;;
54502;SDS011;40411;50.090;21.954;2023-07-30T09:18:04;2.28;;;1.00;;
54502;SDS011;40411;50.090;21.954;2023-07-30T09:20:40;2.95;;;1.08;;
54502;SDS011;40411;50.090;21.954;2023-07-30T09:23:06;2.22;;;1.00;;
54502;SDS011;40411;50.090;21.954;2023-07-30T09:25:34;3.33;;;1.10;;
54502;SDS011;40411;50.090;21.954;2023-07-30T09:28:01;2.70;;;1.10;;
54502;SDS011;40411;50.090;21.954;2023-07-30T09:30:27;3.10;;;1.33;;
54502;SDS011;40411;50.090;21.954;2023-07-30T09:32:55;3.78;;;1.25;;
54502;SDS011;40411;50.090;21.954;2023-07-30T09:35:22;3.78;;;1.35;;
54502;SDS011;40411;50.090;21.954;2023-07-30T09:38:00;5.15;;;1.10;;
54502;SDS011;40411;50.090;21.954;2023-07-30T09:40:32;3.70;;;1.00;;
54502;SDS011;40411;50.090;21.954;2023-07-30T09:42:59;3.35;;;1.67;;
54502;SDS011;40411;50.090;21.954;2023-07-30T09:45:27;3.38;;;1.30;;
54502;SDS011;40411;50.090;21.954;2023-07-30T09:47:54;4.13;;;1.40;;
54502;SDS011;40411;50.090;21.954;2023-07-30T09:50:21;3.65;;;1.33;;
54502;SDS011;40411;50.090;21.954;2023-07-30T09:52:48;4.60;;;1.20;;
54502;SDS011;40411;50.090;21.954;2023-07-30T09:55:15;3.60;;;1.50;;
54502;SDS011;40411;50.090;21.954;2023-07-30T09:57:41;5.80;;;1.52;;
54502;SDS011;40411;50.090;21.954;2023-07-30T10:00:07;2.95;;;1.30;;
54502;SDS011;40411;50.090;21.954;2023-07-30T10:02:38;3.35;;;1.40;;
54502;SDS011;40411;50.090;21.954;2023-07-30T10:05:08;7.07;;;1.40;;
54502;SDS011;40411;50.090;21.954;2023-07-30T10:07:38;4.20;;;1.60;;
54502;SDS011;40411;50.090;21.954;2023-07-30T10:10:08;2.90;;;1.50;;
54502;SDS011;40411;50.090;21.954;2023-07-30T10:12:36;3.30;;;1.27;;
54502;SDS011;40411;50.090;21.954;2023-07-30T10:15:06;3.78;;;1.10;;
54502;SDS011;40411;50.090;21.954;2023-07-30T10:17:33;2.95;;;1.27;;
54502;SDS011;40411;50.090;21.954;2023-07-30T10:20:17;5.55;;;1.60;;
54502;SDS011;40411;50.090;21.954;2023-07-30T10:22:55;3.67;;;1.55;;
54502;SDS011;40411;50.090;21.954;2023-07-30T10:25:28;3.13;;;1.30;;
54502;SDS011;40411;50.090;21.954;2023-07-30T10:27:56;3.42;;;1.40;;
54502;SDS011;40411;50.090;21.954;2023-07-30T10:30:29;3.80;;;1.65;;
54502;SDS011;40411;50.090;21.954;2023-07-30T10:35:38;5.50;;;1.55;;
54502;SDS011;40411;50.090;21.954;2023-07-30T10:43:46;3.78;;;1.70;;
54502;SDS011;40411;50.090;21.954;2023-07-30T10:46:14;5.78;;;1.40;;
54502;SDS011;40411;50.090;21.954;2023-07-30T10:48:43;4.72;;;1.60;;
54502;SDS011;40411;50.090;21.954;2023-07-30T10:51:11;4.30;;;1.60;;
54502;SDS011;40411;50.090;21.954;2023-07-30T10:53:38;3.80;;;1.67;;
54502;SDS011;40411;50.090;21.954;2023-07-30T10:56:07;4.03;;;1.63;;
54502;SDS011;40411;50.090;21.954;2023-07-30T10:58:35;3.63;;;1.45;;
54502;SDS011;40411;50.090;21.954;2023-07-30T11:01:02;2.83;;;1.40;;
54502;SDS011;40411;50.090;21.954;2023-07-30T11:03:29;4.03;;;2.00;;
54502;SDS011;40411;50.090;21.954;2023-07-30T11:05:57;3.05;;;1.50;;
54502;SDS011;40411;50.090;21.954;2023-07-30T11:08:39;3.30;;;1.45;;
54502;SDS011;40411;50.090;21.954;2023-07-30T11:11:09;4.60;;;1.38;;
54502;SDS011;40411;50.090;21.954;2023-07-30T11:16:07;6.25;;;1.60;;
54502;SDS011;40411;50.090;21.954;2023-07-30T11:18:37;4.57;;;1.70;;
54502;SDS011;40411;50.090;21.954;2023-07-30T11:21:06;3.92;;;1.67;;
54502;SDS011;40411;50.090;21.954;2023-07-30T11:23:33;3.92;;;1.30;;
54502;SDS011;40411;50.090;21.954;2023-07-30T11:26:01;9.82;;;1.75;;
54502;SDS011;40411;50.090;21.954;2023-07-30T11:28:32;3.67;;;1.58;;
54502;SDS011;40411;50.090;21.954;2023-07-30T11:31:06;3.85;;;1.63;;
54502;SDS011;40411;50.090;21.954;2023-07-30T11:33:45;3.60;;;1.50;;
54502;SDS011;40411;50.090;21.954;2023-07-30T11:36:14;3.65;;;1.48;;
54502;SDS011;40411;50.090;21.954;2023-07-30T11:38:42;3.17;;;1.50;;
54502;SDS011;40411;50.090;21.954;2023-07-30T11:41:09;8.88;;;1.60;;
54502;SDS011;40411;50.090;21.954;2023-07-30T11:43:36;3.55;;;1.58;;
54502;SDS011;40411;50.090;21.954;2023-07-30T11:48:34;7.03;;;1.70;;
54502;SDS011;40411;50.090;21.954;2023-07-30T11:51:01;3.45;;;1.38;;
54502;SDS011;40411;50.090;21.954;2023-07-30T12:01:29;3.67;;;1.35;;
54502;SDS011;40411;50.090;21.954;2023-07-30T12:03:57;4.63;;;1.70;;
54502;SDS011;40411;50.090;21.954;2023-07-30T12:06:24;3.13;;;1.30;;
54502;SDS011;40411;50.090;21.954;2023-07-30T12:09:11;3.63;;;1.48;;
54502;SDS011;40411;50.090;21.954;2023-07-30T12:11:44;3.88;;;1.58;;
54502;SDS011;40411;50.090;21.954;2023-07-30T12:14:18;4.10;;;1.70;;
54502;SDS011;40411;50.090;21.954;2023-07-30T12:16:44;3.38;;;1.50;;
54502;SDS011;40411;50.090;21.954;2023-07-30T12:19:11;4.90;;;1.60;;
54502;SDS011;40411;50.090;21.954;2023-07-30T12:21:37;7.15;;;1.63;;
54502;SDS011;40411;50.090;21.954;2023-07-30T12:24:03;4.30;;;1.70;;
54502;SDS011;40411;50.090;21.954;2023-07-30T12:26:29;3.67;;;1.48;;
54502;SDS011;40411;50.090;21.954;2023-07-30T12:28:56;3.75;;;1.67;;
54502;SDS011;40411;50.090;21.954;2023-07-30T12:31:21;3.83;;;1.60;;
54502;SDS011;40411;50.090;21.954;2023-07-30T12:33:48;4.05;;;1.60;;
54502;SDS011;40411;50.090;21.954;2023-07-30T12:36:14;4.10;;;1.70;;
54502;SDS011;40411;50.090;21.954;2023-07-30T12:38:40;4.47;;;1.60;;
54502;SDS011;40411;50.090;21.954;2023-07-30T12:41:06;4.28;;;1.55;;
54502;SDS011;40411;50.090;21.954;2023-07-30T12:43:32;3.15;;;1.50;;
54502;SDS011;40411;50.090;21.954;2023-07-30T12:45:57;2.92;;;1.30;;
54502;SDS011;40411;50.090;21.954;2023-07-30T12:48:23;3.53;;;1.40;;
54502;SDS011;40411;50.090;21.954;2023-07-30T12:50:49;3.10;;;1.20;;
54502;SDS011;40411;50.090;21.954;2023-07-30T12:53:15;4.10;;;1.52;;
54502;SDS011;40411;50.090;21.954;2023-07-30T12:55:41;4.97;;;1.55;;
54502;SDS011;40411;50.090;21.954;2023-07-30T12:58:08;6.80;;;1.50;;
54502;SDS011;40411;50.090;21.954;2023-07-30T13:00:33;5.90;;;1.52;;
54502;SDS011;40411;50.090;21.954;2023-07-30T13:03:00;3.92;;;1.60;;
54502;SDS011;40411;50.090;21.954;2023-07-30T13:05:27;3.85;;;1.60;;
54502;SDS011;40411;50.090;21.954;2023-07-30T13:07:53;2.92;;;1.38;;
54502;SDS011;40411;50.090;21.954;2023-07-30T13:10:19;6.40;;;1.80;;
54502;SDS011;40411;50.090;21.954;2023-07-30T13:12:45;5.10;;;1.30;;
54502;SDS011;40411;50.090;21.954;2023-07-30T13:15:11;3.45;;;1.52;;
54502;SDS011;40411;50.090;21.954;2023-07-30T13:17:37;3.60;;;1.52;;
54502;SDS011;40411;50.090;21.954;2023-07-30T13:20:04;3.17;;;1.45;;
54502;SDS011;40411;50.090;21.954;2023-07-30T13:22:31;3.50;;;1.33;;
54502;SDS011;40411;50.090;21.954;2023-07-30T13:24:56;5.30;;;1.50;;
54502;SDS011;40411;50.090;21.954;2023-07-30T13:27:22;3.50;;;1.35;;
54502;SDS011;40411;50.090;21.954;2023-07-30T13:29:48;4.03;;;1.60;;
54502;SDS011;40411;50.090;21.954;2023-07-30T13:32:14;3.28;;;1.42;;
54502;SDS011;40411;50.090;21.954;2023-07-30T13:34:40;4.65;;;1.80;;
54502;SDS011;40411;50.090;21.954;2023-07-30T13:37:06;4.28;;;1.45;;
54502;SDS011;40411;50.090;21.954;2023-07-30T13:39:32;4.30;;;1.50;;
54502;SDS011;40411;50.090;21.954;2023-07-30T13:41:58;3.58;;;1.65;;
54502;SDS011;40411;50.090;21.954;2023-07-30T13:44:24;4.00;;;1.60;;
54502;SDS011;40411;50.090;21.954;2023-07-30T13:46:50;3.53;;;1.60;;
54502;SDS011;40411;50.090;21.954;2023-07-30T13:49:15;4.07;;;1.80;;
54502;SDS011;40411;50.090;21.954;2023-07-30T13:51:41;3.35;;;1.50;;
54502;SDS011;40411;50.090;21.954;2023-07-30T13:54:07;3.72;;;1.52;;
54502;SDS011;40411;50.090;21.954;2023-07-30T13:56:33;3.67;;;1.50;;
54502;SDS011;40411;50.090;21.954;2023-07-30T13:58:59;4.15;;;1.50;;
54502;SDS011;40411;50.090;21.954;2023-07-30T14:01:25;3.90;;;1.60;;
54502;SDS011;40411;50.090;21.954;2023-07-30T14:03:51;3.83;;;1.70;;
54502;SDS011;40411;50.090;21.954;2023-07-30T14:06:17;3.15;;;1.58;;
54502;SDS011;40411;50.090;21.954;2023-07-30T14:08:43;5.97;;;1.75;;
54502;SDS011;40411;50.090;21.954;2023-07-30T14:11:09;5.97;;;1.60;;
54502;SDS011;40411;50.090;21.954;2023-07-30T14:13:34;3.53;;;1.48;;
54502;SDS011;40411;50.090;21.954;2023-07-30T14:16:00;4.07;;;1.75;;
54502;SDS011;40411;50.090;21.954;2023-07-30T14:18:26;7.40;;;1.58;;
54502;SDS011;40411;50.090;21.954;2023-07-30T14:20:52;4.13;;;1.60;;
54502;SDS011;40411;50.090;21.954;2023-07-30T14:23:18;4.10;;;1.77;;
54502;SDS011;40411;50.090;21.954;2023-07-30T14:25:44;4.80;;;1.70;;
54502;SDS011;40411;50.090;21.954;2023-07-30T14:28:10;4.47;;;1.70;;
54502;SDS011;40411;50.090;21.954;2023-07-30T14:30:36;3.70;;;1.80;;
54502;SDS011;40411;50.090;21.954;2023-07-30T14:33:03;3.28;;;1.65;;
54502;SDS011;40411;50.090;21.954;2023-07-30T14:35:29;3.30;;;1.75;;
54502;SDS011;40411;50.090;21.954;2023-07-30T14:37:55;3.25;;;1.50;;
54502;SDS011;40411;50.090;21.954;2023-07-30T14:40:21;3.70;;;1.67;;
54502;SDS011;40411;50.090;21.954;2023-07-30T14:42:47;4.47;;;1.70;;
54502;SDS011;40411;50.090;21.954;2023-07-30T14:45:13;4.45;;;1.80;;
54502;SDS011;40411;50.090;21.954;2023-07-30T14:47:39;4.72;;;1.80;;
54502;SDS011;40411;50.090;21.954;2023-07-30T14:50:05;4.97;;;1.90;;
54502;SDS011;40411;50.090;21.954;2023-07-30T14:52:32;6.40;;;1.63;;
54502;SDS011;40411;50.090;21.954;2023-07-30T14:54:58;5.75;;;1.52;;
54502;SDS011;40411;50.090;21.954;2023-07-30T14:57:23;4.70;;;1.70;;
54502;SDS011;40411;50.090;21.954;2023-07-30T14:59:50;4.45;;;2.03;;
54502;SDS011;40411;50.090;21.954;2023-07-30T15:02:15;3.95;;;1.70;;